Time;durP1;ratioP1;P1;durP2;ratioP2;P2;SDS_P1;SDS_P2;PMS_P1;PMS_P2;Temp;Humidity;BMP_temperature;BMP_pressure;BME280_temperature;BME280_humidity;BME280_pressure;Samples;Min_cycle;Max_cycle;Signal;HPM_P1;HPM_P2
2021/06/30 00:01:46;;;;;;;11.02;5.07;;;;;;;16.94;62.57;101350.66;5030764;28;20038;-41
2021/06/30 00:04:18;;;;;;;11.23;5.57;;;;;;;16.93;62.51;101351.81;5030667;28;20045;-41
2021/06/30 00:06:47;;;;;;;12.27;4.55;;;;;;;16.98;62.47;101346.72;5024415;28;20050;-41
2021/06/30 00:09:19;;;;;;;8.48;3.95;;;;;;;17.01;62.47;101347.97;5016936;28;20474;-40
2021/06/30 00:11:50;;;;;;;;;;;;;;;16.98;62.38;101345.91;5030040;28;20131;-43
2021/06/30 00:14:23;;;;;;;8.52;5.00;;;;;;;17.09;61.77;101340.50;5016124;28;20012;-45
2021/06/30 00:16:58;;;;;;;8.55;4.60;;;;;;;17.05;62.48;101346.84;5015387;28;20141;-42
2021/06/30 00:19:29;;;;;;;7.28;4.70;;;;;;;17.08;62.22;101339.69;5025426;28;20111;-40
2021/06/30 00:22:02;;;;;;;11.85;5.18;;;;;;;17.05;62.48;101351.63;5029005;28;20132;-41
2021/06/30 00:24:36;;;;;;;11.32;4.85;;;;;;;16.98;62.61;101345.91;5016212;28;20141;-41
2021/06/30 00:27:08;;;;;;;7.72;5.20;;;;;;;16.98;62.64;101335.53;5014904;28;20048;-42
2021/06/30 00:29:40;;;;;;;12.65;5.15;;;;;;;16.94;62.80;101339.47;5011438;28;20133;-41
2021/06/30 00:32:11;;;;;;;11.25;6.30;;;;;;;16.95;62.85;101341.06;5005846;28;20457;-44
2021/06/30 00:34:43;;;;;;;8.65;5.20;;;;;;;16.98;62.88;101340.31;5030221;28;20041;-43
2021/06/30 00:37:15;;;;;;;12.07;5.65;;;;;;;16.96;62.88;101342.69;5029354;28;20124;-40
2021/06/30 00:39:50;;;;;;;12.00;6.35;;;;;;;16.95;63.15;101336.28;5030391;28;20684;-42
2021/06/30 00:42:21;;;;;;;13.32;6.57;;;;;;;16.95;63.49;101338.25;5015324;28;20058;-42
2021/06/30 00:44:53;;;;;;;16.50;6.40;;;;;;;16.92;63.51;101336.22;5017786;28;20494;-41
2021/06/30 00:47:28;;;;;;;18.73;8.70;;;;;;;16.86;63.61;101332.13;5017249;28;20050;-42
2021/06/30 00:50:04;;;;;;;13.40;7.97;;;;;;;16.74;64.08;101335.91;5011519;28;20096;-42
2021/06/30 00:52:36;;;;;;;10.45;7.85;;;;;;;16.65;64.04;101326.16;5037337;28;20049;-44
2021/06/30 00:55:09;;;;;;;15.18;9.40;;;;;;;16.61;64.03;101330.88;5000666;28;20044;-42
2021/06/30 00:57:42;;;;;;;15.95;8.38;;;;;;;16.62;64.19;101343.69;5025715;28;20490;-46
2021/06/30 01:00:15;;;;;;;12.27;9.15;;;;;;;16.62;63.86;101336.09;5017082;28;20128;-42
2021/06/30 01:02:47;;;;;;;13.82;9.60;;;;;;;16.58;64.01;101337.19;5029899;28;20095;-41
2021/06/30 01:05:19;;;;;;;13.18;9.98;;;;;;;16.52;64.21;101344.25;5016808;28;20052;-41
2021/06/30 01:07:51;;;;;;;23.77;10.90;;;;;;;16.43;64.45;101341.69;5029865;28;20050;-43
2021/06/30 01:10:23;;;;;;;15.50;10.00;;;;;;;16.37;64.50;101337.59;5030638;28;20038;-41
2021/06/30 01:12:54;;;;;;;16.00;9.80;;;;;;;16.38;64.63;101336.41;5021498;28;20060;-41
2021/06/30 01:15:26;;;;;;;14.30;9.40;;;;;;;16.36;64.85;101335.97;5029835;28;20413;-41
2021/06/30 01:17:58;;;;;;;11.23;8.95;;;;;;;16.43;64.69;101336.09;5018366;28;20733;-41
2021/06/30 01:20:29;;;;;;;13.93;9.60;;;;;;;16.41;64.77;101327.28;5025156;28;20086;-42
2021/06/30 01:23:09;;;;;;;13.13;8.32;;;;;;;16.33;64.98;101331.94;5026147;28;20049;-42
2021/06/30 01:25:41;;;;;;;12.55;8.70;;;;;;;16.45;64.72;101334.56;5033674;28;20058;-41
2021/06/30 01:28:14;;;;;;;12.23;7.72;;;;;;;16.52;64.67;101328.28;5034432;28;20091;-42
2021/06/30 01:30:45;;;;;;;13.60;8.85;;;;;;;16.58;64.59;101328.81;5033073;28;20053;-44
2021/06/30 01:33:17;;;;;;;13.40;8.13;;;;;;;16.54;64.44;101331.56;5018255;28;20164;-41
2021/06/30 01:35:49;;;;;;;10.73;8.07;;;;;;;16.57;64.44;101335.59;5033904;28;20041;-41
2021/06/30 01:38:23;;;;;;;10.98;7.30;;;;;;;16.54;64.41;101341.94;5030874;28;20045;-42
2021/06/30 01:40:58;;;;;;;9.35;7.75;;;;;;;16.56;64.42;101343.19;5032670;28;20042;-42
2021/06/30 01:43:30;;;;;;;11.38;8.15;;;;;;;16.57;64.41;101344.00;5026926;28;20064;-42
2021/06/30 01:46:02;;;;;;;10.30;7.57;;;;;;;16.58;64.50;101342.78;5028882;28;20047;-41
2021/06/30 01:48:36;;;;;;;10.75;8.45;;;;;;;16.55;64.59;101344.34;5033403;28;20506;-41
2021/06/30 01:51:08;;;;;;;12.60;8.52;;;;;;;16.59;64.54;101347.22;5030501;28;20100;-42
2021/06/30 01:53:40;;;;;;;10.05;7.63;;;;;;;16.60;64.32;101351.63;5040504;28;20050;-42
2021/06/30 01:56:11;;;;;;;11.85;7.88;;;;;;;16.54;64.53;101355.91;5028567;28;20132;-42
2021/06/30 01:58:45;;;;;;;12.23;8.02;;;;;;;16.59;64.44;101350.00;5033182;28;20049;-42
2021/06/30 02:01:17;;;;;;;9.07;7.22;;;;;;;16.59;64.42;101353.63;5031388;28;20133;-41
2021/06/30 02:03:49;;;;;;;10.60;7.68;;;;;;;16.48;64.79;101349.78;5032721;28;20137;-41
2021/06/30 02:06:20;;;;;;;10.43;7.47;;;;;;;16.42;64.71;101346.47;5030499;28;20133;-41
2021/06/30 02:08:58;;;;;;;13.00;7.53;;;;;;;16.37;64.69;101341.19;5033285;28;20132;-42
2021/06/30 02:11:30;;;;;;;10.77;7.85;;;;;;;16.34;64.68;101344.72;5023545;28;20082;-42
2021/06/30 02:14:07;;;;;;;9.30;6.93;;;;;;;16.26;64.98;101342.97;5026090;28;20040;-44
2021/06/30 02:16:39;;;;;;;11.10;7.30;;;;;;;16.29;64.77;101347.81;5022654;28;20129;-41
2021/06/30 02:19:12;;;;;;;8.43;7.43;;;;;;;16.27;64.79;101350.19;5017937;28;20554;-42
2021/06/30 02:21:44;;;;;;;12.00;7.78;;;;;;;16.26;64.56;101345.75;5027453;28;20054;-41
2021/06/30 02:24:16;;;;;;;12.35;8.77;;;;;;;16.24;64.64;101347.31;5026332;28;20065;-41
2021/06/30 02:26:48;;;;;;;10.05;7.65;;;;;;;16.18;64.80;101343.19;5023620;28;20053;-41
2021/06/30 02:29:19;;;;;;;9.40;8.38;;;;;;;16.12;64.83;101342.69;5025094;28;20368;-42
2021/06/30 02:31:56;;;;;;;9.18;6.85;;;;;;;16.14;64.63;101345.94;5023174;28;20545;-42
2021/06/30 02:34:27;;;;;;;13.65;8.45;;;;;;;16.16;64.77;101334.38;5022541;28;20073;-41
2021/06/30 02:36:59;;;;;;;16.13;8.88;;;;;;;16.16;64.77;101339.97;5012534;28;20046;-41
2021/06/30 02:39:31;;;;;;;12.90;7.72;;;;;;;16.10;64.85;101347.00;5021258;28;20132;-41
2021/06/30 02:42:06;;;;;;;12.15;7.75;;;;;;;16.09;64.93;101346.22;5016374;28;20041;-42
2021/06/30 02:44:40;;;;;;;10.60;7.75;;;;;;;16.12;64.79;101345.50;5025758;28;20045;-42
2021/06/30 02:47:11;;;;;;;13.45;8.73;;;;;;;16.03;64.86;101342.09;5027348;28;20049;-42
2021/06/30 02:49:43;;;;;;;14.95;8.48;;;;;;;16.02;64.76;101346.06;5019474;28;20042;-41
2021/06/30 02:52:17;;;;;;;13.85;8.85;;;;;;;15.97;65.13;101346.34;5024220;28;20037;-43
2021/06/30 02:54:49;;;;;;;13.98;10.45;;;;;;;15.98;65.08;101345.19;5022730;28;20084;-42
2021/06/30 02:57:21;;;;;;;10.65;9.02;;;;;;;15.89;65.12;101338.19;5025438;28;20052;-43
2021/06/30 02:59:52;;;;;;;19.27;9.23;;;;;;;15.83;65.06;101330.09;5023170;28;20052;-41
2021/06/30 03:02:27;;;;;;;10.02;7.95;;;;;;;15.83;65.13;101335.69;5031235;28;20119;-42
2021/06/30 03:04:58;;;;;;;15.95;8.50;;;;;;;15.85;64.95;101343.72;5027019;28;20133;-41
2021/06/30 03:07:30;;;;;;;12.25;9.65;;;;;;;15.84;65.08;101336.50;5030185;28;20104;-41
2021/06/30 03:10:04;;;;;;;12.75;8.95;;;;;;;15.72;65.34;101340.25;5029533;28;20422;-41
2021/06/30 03:12:36;;;;;;;14.85;9.93;;;;;;;15.74;65.06;101348.25;5028299;28;20416;-41
2021/06/30 03:15:10;;;;;;;12.00;9.23;;;;;;;15.67;65.44;101332.13;5028792;28;20049;-43
2021/06/30 03:17:42;;;;;;;13.98;10.68;;;;;;;15.64;65.33;101343.25;5014522;28;20213;-41
2021/06/30 03:20:15;;;;;;;16.27;10.52;;;;;;;15.55;65.59;101340.66;5026715;28;20049;-42
2021/06/30 03:22:47;;;;;;;14.30;10.90;;;;;;;15.48;65.85;101337.72;5014247;28;20038;-41
2021/06/30 03:25:19;;;;;;;19.60;10.65;;;;;;;15.44;65.86;101345.16;5012926;28;20081;-41
2021/06/30 03:27:49;;;;;;;19.47;12.40;;;;;;;15.45;65.86;101340.38;5032265;28;20072;-40
2021/06/30 03:30:21;;;;;;;16.20;11.75;;;;;;;15.34;66.21;101339.31;5031471;28;20072;-41
2021/06/30 03:32:53;;;;;;;14.38;11.05;;;;;;;15.33;65.91;101343.28;5031574;28;20046;-41
2021/06/30 03:35:25;;;;;;;16.80;11.23;;;;;;;15.27;66.10;101335.19;5030012;28;20040;-41
2021/06/30 03:37:56;;;;;;;17.27;11.02;;;;;;;15.20;66.47;101335.03;5011014;28;20047;-41
2021/06/30 03:40:29;;;;;;;14.23;11.98;;;;;;;15.12;66.50;101338.81;5030220;28;20045;-40
2021/06/30 03:43:01;;;;;;;18.27;10.13;;;;;;;15.07;66.58;101346.63;5027362;28;20158;-41
2021/06/30 03:45:32;;;;;;;12.73;10.23;;;;;;;14.98;66.95;101343.25;5011959;28;20056;-42
2021/06/30 03:48:05;;;;;;;18.35;10.20;;;;;;;14.97;67.05;101342.44;5027366;28;20073;-42
2021/06/30 03:50:37;;;;;;;15.15;9.60;;;;;;;15.01;66.86;101343.31;5023248;28;20049;-41
2021/06/30 03:53:08;;;;;;;13.00;9.73;;;;;;;15.03;66.72;101335.41;5030943;28;20498;-47
2021/06/30 03:55:40;;;;;;;15.45;11.18;;;;;;;14.99;66.69;101339.25;5021787;28;20041;-41
2021/06/30 03:58:12;;;;;;;13.82;10.25;;;;;;;14.97;66.68;101342.44;5031618;28;20048;-44
2021/06/30 04:00:44;;;;;;;;;;;;;;;14.84;67.07;101345.66;5031922;28;20558;-41
2021/06/30 04:03:20;;;;;;;12.48;9.10;;;;;;;14.85;66.76;101345.28;5030845;28;19957;-42
2021/06/30 04:05:53;;;;;;;11.95;8.52;;;;;;;14.84;66.75;101338.13;5029323;28;20149;-41
2021/06/30 04:08:24;;;;;;;;;;;;;;;14.83;66.87;101344.84;5032384;28;20107;-41
2021/06/30 04:10:56;;;;;;;11.82;8.35;;;;;;;14.89;66.38;101349.00;5024913;28;19921;-42
2021/06/30 04:13:28;;;;;;;13.13;9.00;;;;;;;14.91;66.15;101348.63;5028176;28;20140;-42
2021/06/30 04:15:59;;;;;;;11.02;8.27;;;;;;;14.90;66.35;101345.03;5029984;28;20103;-41
2021/06/30 04:18:31;;;;;;;13.02;9.02;;;;;;;14.94;66.10;101343.16;5032394;28;20077;-43
2021/06/30 04:21:08;;;;;;;11.60;8.13;;;;;;;14.96;66.06;101340.78;5034519;28;20562;-41
2021/06/30 04:23:39;;;;;;;12.13;8.55;;;;;;;14.92;66.08;101337.13;5019346;28;20046;-41
2021/06/30 04:26:11;;;;;;;9.23;8.00;;;;;;;14.87;66.20;101342.97;5028318;28;20052;-43
2021/06/30 04:28:43;;;;;;;9.25;7.72;;;;;;;14.90;65.97;101345.03;5018869;28;20097;-41
2021/06/30 04:31:17;;;;;;;11.95;9.20;;;;;;;14.94;65.53;101340.34;5026528;28;20037;-42
2021/06/30 04:33:52;;;;;;;11.55;8.50;;;;;;;14.94;65.93;101340.34;5024576;28;20061;-41
2021/06/30 04:36:24;;;;;;;11.13;8.55;;;;;;;14.94;65.69;101345.94;5024893;28;20041;-41
2021/06/30 04:38:56;;;;;;;13.43;9.77;;;;;;;14.85;65.99;101344.50;5031530;28;20045;-41
2021/06/30 04:41:33;;;;;;;11.07;8.35;;;;;;;14.74;66.02;101354.56;5031482;28;20045;-41
2021/06/30 04:44:07;;;;;;;10.50;8.48;;;;;;;14.70;66.02;101351.66;5023139;28;20073;-42
2021/06/30 04:46:39;;;;;;;10.82;8.23;;;;;;;14.61;66.10;101353.84;5017549;28;20495;-45
2021/06/30 04:49:11;;;;;;;13.43;9.23;;;;;;;14.48;66.13;101352.28;5031658;28;20443;-42
2021/06/30 04:51:44;;;;;;;12.57;9.38;;;;;;;14.37;66.49;101353.97;5019181;28;20045;-41
2021/06/30 04:54:17;;;;;;;16.15;10.73;;;;;;;14.27;66.81;101348.88;5023921;28;20046;-42
2021/06/30 04:56:49;;;;;;;15.32;10.05;;;;;;;14.24;66.75;101344.03;5024196;28;20077;-41
2021/06/30 04:59:23;;;;;;;14.23;9.88;;;;;;;14.17;66.78;101346.59;5031170;28;20141;-41
2021/06/30 05:01:55;;;;;;;16.15;10.80;;;;;;;14.04;67.25;101343.06;5019064;28;20060;-43
2021/06/30 05:04:32;;;;;;;14.93;10.23;;;;;;;13.91;67.38;101352.59;5030859;28;20053;-42
2021/06/30 05:07:04;;;;;;;14.68;9.90;;;;;;;13.95;67.51;101351.53;5016912;28;20100;-42
2021/06/30 05:09:35;;;;;;;;;;;;;;;14.00;67.46;101345.72;5031571;28;20039;-42
2021/06/30 05:12:08;;;;;;;12.40;9.35;;;;;;;14.21;66.69;101351.13;5014832;28;19975;-41
2021/06/30 05:14:39;;;;;;;16.27;11.43;;;;;;;14.20;66.95;101352.28;5019411;28;20052;-42
2021/06/30 05:17:12;;;;;;;15.05;10.38;;;;;;;14.22;66.78;101352.72;5029507;28;20045;-42
2021/06/30 05:19:45;;;;;;;14.35;9.68;;;;;;;14.21;67.03;101353.09;5026445;28;20096;-41
2021/06/30 05:22:19;;;;;;;13.38;10.18;;;;;;;14.19;67.28;101350.63;5014696;28;20290;-41
2021/06/30 05:24:51;;;;;;;18.23;11.80;;;;;;;14.20;67.51;101348.66;5019593;28;20054;-44
2021/06/30 05:27:25;;;;;;;17.23;10.68;;;;;;;14.27;67.26;101354.47;5030063;28;20053;-47
2021/06/30 05:29:57;;;;;;;19.85;12.15;;;;;;;14.22;67.46;101360.25;5022824;28;20038;-44
2021/06/30 05:32:32;;;;;;;14.60;11.68;;;;;;;14.24;67.47;101364.34;5025724;28;20049;-41
2021/06/30 05:35:04;;;;;;;16.35;11.80;;;;;;;14.30;67.64;101362.06;5015515;28;20125;-41
2021/06/30 05:37:38;;;;;;;15.73;11.40;;;;;;;14.33;67.55;101361.41;5028910;28;20473;-43
2021/06/30 05:40:10;;;;;;;15.05;10.77;;;;;;;14.30;67.74;101362.06;5030659;28;20136;-41
2021/06/30 05:42:43;;;;;;;16.52;11.25;;;;;;;14.37;67.80;101356.75;5016684;28;20542;-42
2021/06/30 05:45:18;;;;;;;13.68;9.68;;;;;;;14.46;67.58;101357.38;5027960;28;20042;-41
2021/06/30 05:47:51;;;;;;;12.65;8.88;;;;;;;14.48;67.52;101360.66;5026438;28;20041;-41
2021/06/30 05:50:22;;;;;;;10.90;9.38;;;;;;;14.49;67.44;101359.47;5029642;28;20132;-47
2021/06/30 05:52:54;;;;;;;15.45;7.97;;;;;;;14.51;67.32;101360.72;5023632;28;20046;-41
2021/06/30 05:55:26;;;;;;;12.82;9.93;;;;;;;14.50;67.59;101366.66;5011233;28;20395;-41
2021/06/30 05:57:58;;;;;;;14.63;9.65;;;;;;;14.43;67.50;101366.44;5012143;28;20058;-42
2021/06/30 06:00:29;;;;;;;15.45;9.95;;;;;;;14.39;67.52;101360.00;5029713;28;20036;-42
2021/06/30 06:03:01;;;;;;;12.52;10.13;;;;;;;14.28;67.99;101370.81;5029063;28;20038;-42
2021/06/30 06:05:33;;;;;;;13.63;10.15;;;;;;;14.24;67.92;101361.53;5025912;28;20054;-41
2021/06/30 06:08:05;;;;;;;14.75;10.95;;;;;;;14.34;67.83;101366.63;5020783;28;20132;-42
2021/06/30 06:10:37;;;;;;;13.48;9.07;;;;;;;14.47;67.75;101367.38;5017396;28;20045;-41
2021/06/30 06:13:08;;;;;;;11.13;8.43;;;;;;;14.47;67.71;101359.84;5023332;28;20053;-41
2021/06/30 06:15:40;;;;;;;14.05;8.40;;;;;;;14.51;67.85;101371.06;5016709;28;20076;-42
2021/06/30 06:18:11;;;;;;;9.68;7.13;;;;;;;14.56;67.78;101359.69;5023701;28;20081;-42
2021/06/30 06:20:43;;;;;;;10.77;7.47;;;;;;;14.66;67.72;101353.56;5032987;28;20164;-46
2021/06/30 06:23:15;;;;;;;10.80;8.02;;;;;;;14.74;67.37;101349.00;5027295;28;20033;-41
2021/06/30 06:25:46;;;;;;;11.70;8.43;;;;;;;14.75;67.11;101359.75;5029271;28;20141;-41
2021/06/30 06:28:18;;;;;;;9.45;8.13;;;;;;;14.76;67.63;101358.59;5025341;28;20042;-41
2021/06/30 06:30:50;;;;;;;10.38;8.55;;;;;;;14.84;67.46;101367.97;5032704;28;20091;-41
2021/06/30 06:33:22;;;;;;;10.90;8.68;;;;;;;14.85;67.52;101359.22;5034377;28;20103;-42
2021/06/30 06:35:56;;;;;;;10.90;8.90;;;;;;;14.81;67.38;101361.13;5032184;28;20160;-41
2021/06/30 06:38:28;;;;;;;;;;;;;;;14.79;67.71;101357.91;5017122;28;20197;-42
2021/06/30 06:40:59;;;;;;;11.37;8.63;;;;;;;14.88;67.58;101372.44;5032541;28;19932;-41
2021/06/30 06:43:33;;;;;;;12.45;9.15;;;;;;;14.98;67.62;101360.78;5021444;28;20087;-42
2021/06/30 06:46:08;;;;;;;11.82;9.43;;;;;;;15.05;67.39;101352.59;5009391;28;20053;-41
2021/06/30 06:48:42;;;;;;;10.95;8.57;;;;;;;15.08;67.52;101349.09;5019341;28;20045;-41
2021/06/30 06:51:16;;;;;;;13.45;8.55;;;;;;;15.11;67.44;101353.94;5011377;28;20104;-41
2021/06/30 06:53:48;;;;;;;;;;;;;;;15.05;67.73;101352.59;5011660;28;20415;-40
2021/06/30 06:56:25;;;;;;;12.30;7.93;;;;;;;15.18;67.46;101350.50;5009934;28;19929;-40
2021/06/30 06:58:57;;;;;;;10.05;8.20;;;;;;;15.34;67.12;101356.88;5010770;28;20057;-47
2021/06/30 07:01:28;;;;;;;8.45;7.38;;;;;;;15.46;66.91;101364.38;5010464;28;20124;-42
2021/06/30 07:04:00;;;;;;;10.93;7.20;;;;;;;15.57;66.90;101349.47;5016560;28;20127;-41
2021/06/30 07:06:27;;;;;;;11.25;7.65;;;;;;;15.67;66.92;101348.09;5010621;28;20081;-41
2021/06/30 07:08:59;;;;;;;9.98;7.22;;;;;;;15.69;66.67;101354.13;5025004;28;20053;-43
2021/06/30 07:11:30;;;;;;;11.35;7.07;;;;;;;15.78;66.42;101349.13;5021032;28;20041;-44
2021/06/30 07:14:01;;;;;;;12.45;6.78;;;;;;;15.91;66.34;101347.84;5027520;28;20095;-42
2021/06/30 07:16:37;;;;;;;8.88;6.85;;;;;;;15.95;66.31;101359.88;5023192;28;20038;-46
2021/06/30 07:19:12;;;;;;;12.20;7.10;;;;;;;16.04;66.12;101357.69;5000756;28;20107;-42
2021/06/30 07:21:46;;;;;;;10.23;7.65;;;;;;;16.16;65.69;101354.75;5013228;28;20433;-42
2021/06/30 07:24:17;;;;;;;8.70;6.78;;;;;;;16.22;65.54;101358.88;5015095;28;20044;-46
2021/06/30 07:26:49;;;;;;;13.98;7.10;;;;;;;16.30;65.20;101366.22;5031428;28;20080;-43
2021/06/30 07:29:24;;;;;;;8.38;7.03;;;;;;;16.34;65.21;101367.06;5015302;28;20056;-42
2021/06/30 07:31:56;;;;;;;7.95;7.15;;;;;;;16.27;65.25;101361.34;4994025;28;20045;-42
2021/06/30 07:34:28;;;;;;;7.63;6.47;;;;;;;16.30;65.37;101360.63;5024773;28;20120;-43
2021/06/30 07:37:02;;;;;;;9.07;7.30;;;;;;;16.23;65.32;101366.03;5021166;28;20675;-48
2021/06/30 07:39:34;;;;;;;;;;;;;;;16.20;65.39;101358.41;4997556;28;20041;-42
2021/06/30 07:42:06;;;;;;;10.90;7.85;;;;;;;16.29;65.20;101364.59;5022634;28;20433;-40
2021/06/30 07:44:38;;;;;;;;;;;;;;;16.30;65.16;101366.22;5013544;28;20886;-41
2021/06/30 07:47:06;;;;;;;13.48;7.43;;;;;;;16.36;65.02;101369.53;5010678;28;20417;-41
2021/06/30 07:49:33;;;;;;;12.05;7.57;;;;;;;16.50;64.82;101363.38;5028961;28;20041;-40
2021/06/30 07:52:00;;;;;;;16.42;7.65;;;;;;;16.59;64.68;101350.81;5004286;28;20136;-45
2021/06/30 07:54:27;;;;;;;7.90;6.90;;;;;;;16.70;64.63;101354.63;5015549;28;20042;-43
2021/06/30 07:56:56;;;;;;;13.05;7.53;;;;;;;16.79;64.51;101365.53;5016442;28;20045;-43
2021/06/30 07:59:23;;;;;;;9.20;6.90;;;;;;;16.85;64.46;101358.47;5028277;28;20049;-40
2021/06/30 08:01:56;;;;;;;10.63;7.38;;;;;;;16.83;64.37;101356.06;5027547;28;20045;-42
2021/06/30 08:04:24;;;;;;;12.52;7.90;;;;;;;16.94;64.03;101353.44;5020619;28;20072;-47
2021/06/30 08:06:50;;;;;;;9.68;7.10;;;;;;;16.97;63.81;101355.50;5018673;28;20130;-43
2021/06/30 08:09:17;;;;;;;11.30;7.68;;;;;;;16.96;63.80;101363.09;5023571;28;20033;-41
2021/06/30 08:12:08;;;;;;;9.75;7.43;;;;;;;16.96;63.46;101362.28;5019236;28;20107;-41
2021/06/30 08:14:40;;;;;;;10.65;7.82;;;;;;;16.94;63.35;101361.84;5016537;28;20179;-46
2021/06/30 08:17:07;;;;;;;13.75;7.38;;;;;;;16.92;63.06;101358.59;5023176;28;20069;-41
2021/06/30 08:19:34;;;;;;;9.48;7.28;;;;;;;16.94;63.15;101354.22;5016008;28;20059;-42
2021/06/30 08:22:00;;;;;;;7.47;6.50;;;;;;;17.05;62.75;101354.41;5020907;28;20054;-43
2021/06/30 08:24:27;;;;;;;10.13;7.43;;;;;;;17.08;62.64;101364.88;5019767;28;20559;-41
2021/06/30 08:26:56;;;;;;;13.27;9.45;;;;;;;17.04;62.60;101356.44;5010123;28;20038;-42
2021/06/30 08:29:24;;;;;;;12.75;7.35;;;;;;;16.97;62.60;101366.69;5016641;28;20049;-43
2021/06/30 08:31:59;;;;;;;11.15;7.32;;;;;;;17.02;62.71;101375.56;5008209;28;20065;-44
2021/06/30 08:34:26;;;;;;;10.80;7.05;;;;;;;17.11;62.49;101368.91;5008737;28;20041;-43
2021/06/30 08:36:59;;;;;;;14.10;7.38;;;;;;;17.16;62.47;101368.56;5011631;28;20058;-43
2021/06/30 08:39:26;;;;;;;10.93;7.45;;;;;;;17.27;62.47;101363.97;5007525;28;20541;-42
2021/06/30 08:41:56;;;;;;;8.85;6.57;;;;;;;17.40;62.11;101366.19;5017098;28;20041;-41
2021/06/30 08:44:24;;;;;;;8.68;6.68;;;;;;;17.37;62.14;101357.72;5012643;28;20454;-47
2021/06/30 08:46:57;;;;;;;8.35;7.18;;;;;;;17.46;61.79;101364.69;5008049;28;20053;-45
2021/06/30 08:49:26;;;;;;;13.40;7.78;;;;;;;17.54;61.34;101369.25;5011881;28;20046;-42
2021/06/30 08:51:55;;;;;;;11.23;7.63;;;;;;;17.48;61.01;101355.91;5016369;28;20104;-45
2021/06/30 08:54:23;;;;;;;14.05;8.10;;;;;;;17.52;61.37;101365.19;5009253;28;20100;-42
2021/06/30 08:56:51;;;;;;;9.98;7.53;;;;;;;17.45;61.05;101360.25;5007137;28;20045;-47
2021/06/30 08:59:19;;;;;;;11.18;7.10;;;;;;;17.53;60.96;101366.81;5012206;28;20050;-43
2021/06/30 09:01:46;;;;;;;10.50;7.88;;;;;;;17.64;60.94;101363.00;5008050;28;20410;-43
2021/06/30 09:04:13;;;;;;;7.95;6.45;;;;;;;17.73;60.76;101370.31;5013055;28;20042;-42
2021/06/30 09:06:41;;;;;;;9.70;7.20;;;;;;;17.71;60.61;101367.09;5010492;28;20116;-43
2021/06/30 09:09:13;;;;;;;11.02;7.88;;;;;;;17.68;60.14;101362.25;5009988;28;20592;-43
2021/06/30 09:11:53;;;;;;;15.27;7.25;;;;;;;17.67;60.05;101357.81;5017111;28;20419;-41
2021/06/30 09:14:31;;;;;;;11.63;6.50;;;;;;;17.72;60.18;101363.09;5012748;28;20534;-45
2021/06/30 09:17:14;;;;;;;8.88;6.38;;;;;;;17.75;60.07;101359.53;5014046;28;20045;-42
2021/06/30 09:19:52;;;;;;;11.18;6.97;;;;;;;17.77;59.56;101363.56;5015125;28;20042;-44
2021/06/30 09:22:22;;;;;;;12.20;7.38;;;;;;;17.75;60.11;101362.31;5021755;28;20041;-43
2021/06/30 09:24:49;;;;;;;9.98;7.10;;;;;;;17.79;60.31;101368.81;5024671;28;20111;-41
2021/06/30 09:27:18;;;;;;;9.77;7.65;;;;;;;17.83;59.77;101369.66;5019439;28;20065;-41
2021/06/30 09:29:45;;;;;;;12.32;7.85;;;;;;;17.90;59.83;101378.13;5026134;28;20163;-44
2021/06/30 09:32:17;;;;;;;8.38;6.65;;;;;;;17.96;59.48;101363.44;5021820;28;20064;-45
2021/06/30 09:34:43;;;;;;;11.68;6.80;;;;;;;17.98;59.55;101375.06;5016300;28;20132;-41
2021/06/30 09:37:11;;;;;;;10.25;7.45;;;;;;;17.97;59.19;101381.06;5013930;28;20057;-43
2021/06/30 09:39:55;;;;;;;9.60;7.63;;;;;;;17.94;58.56;101370.59;5007556;28;20521;-43
2021/06/30 09:42:32;;;;;;;12.65;6.75;;;;;;;17.95;58.79;101373.00;5018469;28;20076;-43
2021/06/30 09:45:19;;;;;;;10.38;6.93;;;;;;;18.01;58.03;101376.28;5022955;28;20048;-44
2021/06/30 09:47:51;;;;;;;8.32;7.40;;;;;;;18.00;58.39;101372.69;5025876;28;20056;-44
2021/06/30 09:50:39;;;;;;;11.25;7.20;;;;;;;18.07;58.65;101372.78;5015377;28;20073;-48
2021/06/30 09:53:07;;;;;;;8.18;6.35;;;;;;;18.08;58.63;101365.19;5019291;28;20056;-46
2021/06/30 09:55:34;;;;;;;9.50;7.05;;;;;;;18.14;58.47;101374.84;5020146;28;20060;-44
2021/06/30 09:58:04;;;;;;;10.70;7.32;;;;;;;18.15;58.19;101371.69;5027195;28;20099;-43
2021/06/30 10:00:31;;;;;;;10.43;7.60;;;;;;;18.24;58.18;101371.41;5024243;28;20563;-44
2021/06/30 10:02:58;;;;;;;11.30;8.68;;;;;;;18.36;58.00;101373.94;5024160;28;20442;-43
2021/06/30 10:05:30;;;;;;;11.82;7.18;;;;;;;18.35;57.84;101372.31;5029079;28;20049;-46
2021/06/30 10:08:37;;;;;;;10.85;8.32;;;;;;;18.37;57.09;101352.31;5018102;28;20056;-44
2021/06/30 10:11:11;;;;;;;13.05;8.52;;;;;;;18.47;57.64;101360.88;5006839;28;20486;-42
2021/06/30 10:13:40;;;;;;;8.85;7.43;;;;;;;18.57;57.91;101364.97;5035481;28;20064;-42
2021/06/30 10:16:11;;;;;;;10.55;8.77;;;;;;;18.62;57.53;101356.22;5011935;28;20042;-46
2021/06/30 10:18:41;;;;;;;13.10;9.40;;;;;;;18.61;57.62;101360.22;5014594;28;20041;-42
2021/06/30 10:21:10;;;;;;;10.23;7.97;;;;;;;18.65;57.52;101359.06;5013206;28;20177;-44
2021/06/30 10:23:39;;;;;;;9.85;8.07;;;;;;;18.67;57.32;101356.69;5012258;28;20108;-41
2021/06/30 10:26:06;;;;;;;12.77;8.75;;;;;;;18.75;57.52;101355.56;5019782;28;20691;-46
2021/06/30 10:28:35;;;;;;;13.07;8.38;;;;;;;18.66;57.20;101357.88;5015850;28;20046;-45
2021/06/30 10:31:02;;;;;;;12.40;9.00;;;;;;;18.56;57.58;101364.16;5010893;28;20127;-46
2021/06/30 10:33:37;;;;;;;11.75;8.80;;;;;;;18.58;57.44;101359.00;5012036;28;20419;-46
2021/06/30 10:36:06;;;;;;;11.57;9.40;;;;;;;18.73;57.26;101348.72;5009469;28;20144;-46
2021/06/30 10:38:49;;;;;;;10.57;8.70;;;;;;;18.96;56.74;101359.75;5011006;28;20052;-44
2021/06/30 10:41:53;;;;;;;13.20;10.57;;;;;;;19.09;56.28;101372.31;5011967;28;20421;-43
2021/06/30 10:44:29;;;;;;;11.05;8.95;;;;;;;19.17;56.52;101363.53;5010464;28;20041;-41
2021/06/30 10:47:27;;;;;;;18.90;9.32;;;;;;;19.33;55.51;101366.06;5019303;28;20775;-42
2021/06/30 10:50:17;;;;;;;10.18;7.97;;;;;;;19.60;55.44;101363.88;5018253;28;20703;-45
2021/06/30 10:52:45;;;;;;;11.27;9.02;;;;;;;19.71;55.45;101368.38;5013412;28;20127;-50
2021/06/30 10:55:35;;;;;;;11.80;9.10;;;;;;;19.89;53.69;101363.66;5010644;28;20124;-46
2021/06/30 10:58:14;;;;;;;13.93;9.52;;;;;;;19.95;54.13;101362.09;5010862;28;20432;-44
2021/06/30 11:01:05;;;;;;;14.73;9.27;;;;;;;20.00;54.27;101364.53;5034616;28;20171;-44
2021/06/30 11:03:47;;;;;;;10.90;8.52;;;;;;;20.06;54.37;101367.78;5010216;28;20105;-46
2021/06/30 11:06:23;;;;;;;11.25;8.43;;;;;;;20.34;53.89;101367.09;5009414;28;20050;-42
2021/06/30 11:08:54;;;;;;;9.77;8.40;;;;;;;20.55;53.38;101378.41;5026856;28;20080;-44
2021/06/30 11:11:32;;;;;;;11.38;8.77;;;;;;;20.55;53.23;101373.59;5026120;28;20746;-48
2021/06/30 11:14:01;;;;;;;10.82;7.90;;;;;;;20.70;53.31;101382.91;5014141;28;20570;-47
2021/06/30 11:16:41;;;;;;;12.05;8.30;;;;;;;20.83;52.48;101370.06;5021376;28;20049;-43
2021/06/30 11:19:19;;;;;;;9.00;7.72;;;;;;;20.84;51.90;101374.47;5019143;28;20033;-42
2021/06/30 11:22:08;;;;;;;12.25;8.45;;;;;;;20.70;52.11;101368.84;5015634;28;20403;-43
2021/06/30 11:24:48;;;;;;;10.68;8.45;;;;;;;20.63;52.52;101371.59;5015283;28;20057;-42
2021/06/30 11:27:22;;;;;;;10.25;8.07;;;;;;;20.50;52.22;101370.38;5017805;28;20046;-42
2021/06/30 11:29:58;;;;;;;10.55;8.50;;;;;;;20.63;52.16;101372.41;5026709;28;20061;-43
2021/06/30 11:32:38;;;;;;;9.32;7.95;;;;;;;20.73;51.03;101368.00;5026639;28;20052;-43
2021/06/30 11:35:10;;;;;;;9.95;7.70;;;;;;;20.69;51.86;101367.22;5028950;28;20053;-43
2021/06/30 11:37:39;;;;;;;8.80;7.80;;;;;;;20.64;51.63;101359.97;5015899;28;20570;-43
2021/06/30 11:40:17;;;;;;;9.55;7.00;;;;;;;20.74;51.63;101363.19;5021475;28;20057;-45
2021/06/30 11:42:48;;;;;;;10.60;7.63;;;;;;;20.77;51.26;101363.22;5025909;28;20045;-43
2021/06/30 11:45:18;;;;;;;;;;;;;;;20.81;51.06;101364.00;5029606;28;20123;-42